Time;durP1;ratioP1;P1;durP2;ratioP2;P2;SDS_P1;SDS_P2;PMS_P1;PMS_P2;Temp;Humidity;BMP_temperature;BMP_pressure;BME280_temperature;BME280_humidity;BME280_pressure;Samples;Min_cycle;Max_cycle;Signal;HPM_P1;HPM_P2
2022/10/29 00:00:39;;;;;;;1999.90;999.90;;;18.00;99.90;;;;;;5071531;28;20414;-65
2022/10/29 00:03:05;;;;;;;1999.90;999.90;;;18.00;99.90;;;;;;5071475;28;20898;-66
2022/10/29 00:05:30;;;;;;;1999.90;999.90;;;17.90;99.90;;;;;;5071403;28;20538;-65
2022/10/29 00:07:56;;;;;;;1999.90;999.90;;;17.90;99.90;;;;;;5071159;28;20433;-65
2022/10/29 00:10:22;;;;;;;1999.90;999.90;;;17.90;99.90;;;;;;5071459;28;20202;-65
2022/10/29 00:12:47;;;;;;;1999.90;999.90;;;18.00;99.90;;;;;;5071518;28;20163;-65
2022/10/29 00:15:13;;;;;;;1999.90;999.90;;;17.90;99.90;;;;;;5071624;28;20275;-65
2022/10/29 00:17:39;;;;;;;1999.90;999.90;;;17.90;99.90;;;;;;5071343;28;20172;-65
2022/10/29 00:20:05;;;;;;;1999.90;999.90;;;17.80;99.90;;;;;;5071834;28;20225;-65
2022/10/29 00:22:31;;;;;;;1999.90;999.90;;;17.80;99.90;;;;;;5071718;28;20171;-65
2022/10/29 00:24:56;;;;;;;1999.90;999.90;;;17.70;99.90;;;;;;5071304;28;20434;-65
2022/10/29 00:27:22;;;;;;;1999.90;999.90;;;17.70;99.90;;;;;;5071134;28;20170;-65
2022/10/29 00:29:48;;;;;;;1999.90;999.90;;;17.70;99.90;;;;;;5074294;28;20186;-66
2022/10/29 00:32:13;;;;;;;1999.90;999.90;;;17.60;99.90;;;;;;5078790;28;20273;-66
2022/10/29 00:34:39;;;;;;;1999.90;999.90;;;17.60;99.90;;;;;;5079004;28;20189;-65
2022/10/29 00:37:05;;;;;;;1999.90;999.90;;;17.60;99.90;;;;;;5078846;28;20625;-65
2022/10/29 00:39:32;;;;;;;1999.90;999.90;;;17.60;99.90;;;;;;5078635;28;20609;-66
2022/10/29 00:41:58;;;;;;;1999.90;999.90;;;17.50;99.90;;;;;;5078503;28;20765;-66
2022/10/29 00:44:30;;;;;;;1999.90;999.90;;;17.50;99.90;;;;;;5078685;28;20436;-65
2022/10/29 00:47:26;;;;;;;1999.90;999.90;;;17.30;99.90;;;;;;5078411;28;20474;-65
2022/10/29 00:50:07;;;;;;;1999.90;999.90;;;17.30;99.90;;;;;;5074838;28;20533;-65
2022/10/29 00:52:37;;;;;;;1999.90;999.90;;;17.30;99.90;;;;;;5074613;28;20967;-65
2022/10/29 00:55:06;;;;;;;1999.90;999.90;;;17.30;99.90;;;;;;5074320;28;20516;-65
2022/10/29 00:57:53;;;;;;;1999.90;999.90;;;17.30;99.90;;;;;;5077233;28;20407;-65
2022/10/29 01:00:19;;;;;;;1999.90;999.90;;;17.20;99.90;;;;;;5077114;28;20407;-65
2022/10/29 01:02:45;;;;;;;1999.90;999.90;;;17.20;99.90;;;;;;5074201;28;20776;-65
2022/10/29 01:05:17;;;;;;;1999.90;999.90;;;17.20;99.90;;;;;;5074444;28;20461;-65
2022/10/29 01:07:43;;;;;;;1999.90;999.90;;;17.10;99.90;;;;;;5073955;28;20174;-65
2022/10/29 01:10:10;;;;;;;1999.90;999.90;;;17.10;99.90;;;;;;5074179;28;20443;-65
2022/10/29 01:12:53;;;;;;;1999.90;999.90;;;17.10;99.90;;;;;;5074100;28;20393;-65
2022/10/29 01:15:46;;;;;;;1999.90;999.90;;;17.10;99.90;;;;;;5097842;22;20495;-68
2022/10/29 01:18:18;;;;;;;1999.90;999.90;;;17.10;99.90;;;;;;5094050;28;20402;-69
2022/10/29 01:21:06;;;;;;;1999.90;999.90;;;17.10;99.90;;;;;;5094306;28;20405;-69
2022/10/29 01:24:00;;;;;;;1999.90;999.90;;;17.10;99.90;;;;;;5046609;28;20409;-69
2022/10/29 01:26:46;;;;;;;1999.90;999.90;;;17.10;99.90;;;;;;5093987;28;20427;-69
2022/10/29 01:29:57;;;;;;;1999.90;999.90;;;17.10;99.90;;;;;;5094045;28;20396;-69
2022/10/29 01:32:45;;;;;;;1999.90;999.90;;;17.10;99.90;;;;;;5089907;28;20523;-69
2022/10/29 01:35:37;;;;;;;1999.90;999.90;;;17.10;99.90;;;;;;5081099;28;20435;-68
2022/10/29 01:38:02;;;;;;;1999.90;999.90;;;17.20;99.90;;;;;;5093648;28;20400;-69
2022/10/29 01:40:48;;;;;;;1999.90;999.90;;;17.20;99.90;;;;;;5093794;28;20398;-69
2022/10/29 01:43:19;;;;;;;1999.90;999.90;;;17.20;99.90;;;;;;5093949;28;20244;-68
2022/10/29 01:46:14;;;;;;;1999.90;999.90;;;17.20;99.90;;;;;;5093647;28;20496;-69
2022/10/29 01:48:45;;;;;;;1999.90;999.90;;;17.20;99.90;;;;;;5095554;28;20431;-69
2022/10/29 01:51:21;;;;;;;1999.90;999.90;;;17.30;99.90;;;;;;5094365;28;20446;-69
2022/10/29 01:53:47;;;;;;;1999.90;999.90;;;17.30;99.90;;;;;;5093989;28;20893;-69
2022/10/29 01:56:13;;;;;;;1999.90;999.90;;;17.30;99.90;;;;;;5093751;28;20420;-69
2022/10/29 01:58:43;;;;;;;1999.90;999.90;;;17.20;99.90;;;;;;5093955;28;20396;-69
2022/10/29 02:01:09;;;;;;;1999.90;999.90;;;17.30;99.90;;;;;;5094011;28;20170;-69
2022/10/29 02:03:53;;;;;;;1999.90;999.90;;;17.20;99.90;;;;;;5093874;28;20458;-69
2022/10/29 02:06:27;;;;;;;1999.90;999.90;;;17.20;99.90;;;;;;5094681;28;20282;-69
2022/10/29 02:09:26;;;;;;;1999.90;999.90;;;17.20;99.90;;;;;;5093558;28;21151;-71
2022/10/29 02:12:01;;;;;;;1999.90;999.90;;;17.20;99.90;;;;;;5093958;28;21022;-71
2022/10/29 02:14:34;;;;;;;1999.90;999.90;;;17.20;99.90;;;;;;5093211;28;20480;-71
2022/10/29 02:17:00;;;;;;;1999.90;999.90;;;17.20;99.90;;;;;;5092983;28;20490;-71
2022/10/29 02:19:34;;;;;;;1999.90;999.90;;;17.10;99.90;;;;;;5093185;28;20746;-71
2022/10/29 02:21:59;;;;;;;1999.90;999.90;;;17.10;99.90;;;;;;5093517;28;20774;-71
2022/10/29 02:24:25;;;;;;;1999.90;999.90;;;17.00;99.90;;;;;;5093066;28;20411;-71
2022/10/29 02:26:51;;;;;;;1999.90;999.90;;;17.00;99.90;;;;;;5093001;28;20170;-71
2022/10/29 02:29:17;;;;;;;1999.90;999.90;;;17.00;99.90;;;;;;5093088;28;20706;-71
2022/10/29 02:31:42;;;;;;;1999.90;999.90;;;17.00;99.90;;;;;;5092900;28;20452;-71
2022/10/29 02:34:08;;;;;;;1999.90;999.90;;;17.00;99.90;;;;;;5093026;28;20167;-71
2022/10/29 02:36:33;;;;;;;1999.90;999.90;;;17.00;99.90;;;;;;5092917;28;20334;-71
2022/10/29 02:38:59;;;;;;;1999.90;999.90;;;17.00;99.90;;;;;;5092751;28;20177;-71
2022/10/29 02:41:24;;;;;;;1999.90;999.90;;;17.00;99.90;;;;;;5093304;28;20199;-71
2022/10/29 02:43:50;;;;;;;1999.90;999.90;;;16.90;99.90;;;;;;5093017;28;20176;-71
2022/10/29 02:46:18;;;;;;;1999.90;999.90;;;16.90;99.90;;;;;;5092925;28;20268;-71
2022/10/29 02:48:44;;;;;;;1999.90;999.90;;;16.80;99.90;;;;;;5092901;28;20274;-71
2022/10/29 02:51:10;;;;;;;1999.90;999.90;;;16.80;99.90;;;;;;5092935;28;20952;-72
2022/10/29 02:53:36;;;;;;;1999.90;999.90;;;16.80;99.90;;;;;;5092465;28;20406;-70
2022/10/29 02:56:02;;;;;;;1999.90;999.90;;;16.70;99.90;;;;;;5092631;28;20655;-71
2022/10/29 02:58:28;;;;;;;1999.90;999.90;;;16.70;99.90;;;;;;5092315;28;20404;-71
2022/10/29 03:00:53;;;;;;;1999.90;999.90;;;16.70;99.90;;;;;;5092569;28;20456;-70
2022/10/29 03:03:19;;;;;;;1999.90;999.90;;;16.70;99.90;;;;;;5092715;28;20170;-70
2022/10/29 03:05:45;;;;;;;1999.90;999.90;;;16.60;99.90;;;;;;5092480;28;20641;-71
2022/10/29 03:08:10;;;;;;;1999.90;999.90;;;16.50;99.90;;;;;;5092299;28;20497;-70
2022/10/29 03:10:36;;;;;;;1999.90;999.90;;;16.60;99.90;;;;;;5092651;28;20224;-70
2022/10/29 03:13:01;;;;;;;1999.90;999.90;;;16.50;99.90;;;;;;5092316;28;20684;-71
2022/10/29 03:15:27;;;;;;;1999.90;999.90;;;16.50;99.90;;;;;;5092054;28;20807;-70
2022/10/29 03:17:53;;;;;;;1999.90;999.90;;;16.50;99.90;;;;;;5091903;28;20533;-70
2022/10/29 03:20:18;;;;;;;1999.90;999.90;;;16.50;99.90;;;;;;5092157;28;20176;-70
2022/10/29 03:22:44;;;;;;;1999.90;999.90;;;16.40;99.90;;;;;;5092130;28;20667;-70
2022/10/29 03:25:10;;;;;;;1999.90;999.90;;;16.50;99.90;;;;;;5092073;28;20192;-71
2022/10/29 03:27:43;;;;;;;1999.90;999.90;;;16.50;99.90;;;;;;5092023;28;20257;-71
2022/10/29 03:30:14;;;;;;;1999.90;999.90;;;16.40;99.90;;;;;;5092840;28;20413;-71
2022/10/29 03:32:40;;;;;;;1999.90;999.90;;;16.30;99.90;;;;;;5092879;28;20408;-71
2022/10/29 03:35:07;;;;;;;1999.90;999.90;;;16.20;99.90;;;;;;5092571;28;20433;-71
2022/10/29 03:37:32;;;;;;;1999.90;999.90;;;16.20;99.90;;;;;;5092441;28;20497;-71
2022/10/29 03:39:58;;;;;;;1999.90;999.90;;;16.20;99.90;;;;;;5092495;28;20857;-71
2022/10/29 03:42:23;;;;;;;1999.90;999.90;;;16.20;99.90;;;;;;5092636;28;20175;-71
2022/10/29 03:44:49;;;;;;;1999.90;999.90;;;16.30;99.90;;;;;;5092610;28;20190;-72
2022/10/29 03:47:15;;;;;;;1999.90;999.90;;;16.30;99.90;;;;;;5092539;28;20173;-71
2022/10/29 03:49:40;;;;;;;1999.90;999.90;;;16.20;99.90;;;;;;5092759;28;20163;-71
2022/10/29 03:52:06;;;;;;;1999.90;999.90;;;16.20;99.90;;;;;;5092499;28;20728;-71
2022/10/29 03:54:31;;;;;;;1999.90;999.90;;;16.30;99.90;;;;;;5092430;28;20248;-72
2022/10/29 03:56:57;;;;;;;1999.90;999.90;;;16.30;99.90;;;;;;5092530;28;20167;-71
2022/10/29 03:59:22;;;;;;;1999.90;999.90;;;16.30;99.90;;;;;;5092623;28;20252;-71
2022/10/29 04:01:48;;;;;;;1999.90;999.90;;;16.30;99.90;;;;;;5092527;28;20216;-71
2022/10/29 04:04:13;;;;;;;1999.90;999.90;;;16.20;99.90;;;;;;5092432;28;20219;-71
2022/10/29 04:06:39;;;;;;;1999.90;999.90;;;16.30;99.90;;;;;;5094886;28;20268;-71
2022/10/29 04:09:05;;;;;;;1999.90;999.90;;;16.30;99.90;;;;;;5096043;28;20635;-71
2022/10/29 04:11:30;;;;;;;1999.90;999.90;;;16.30;99.90;;;;;;5095930;28;20211;-71
2022/10/29 04:13:56;;;;;;;1999.90;999.90;;;16.40;99.90;;;;;;5096124;28;20164;-71
2022/10/29 04:16:21;;;;;;;1999.90;999.90;;;16.40;99.90;;;;;;5095482;28;20203;-71
2022/10/29 04:18:48;;;;;;;1999.90;999.90;;;16.30;99.90;;;;;;5095780;28;20167;-71
2022/10/29 04:21:14;;;;;;;1999.90;999.90;;;16.30;99.90;;;;;;5096158;28;20184;-71
2022/10/29 04:23:40;;;;;;;1999.90;999.90;;;16.30;99.90;;;;;;5095757;28;20456;-71
2022/10/29 04:26:05;;;;;;;1999.90;999.90;;;16.30;99.90;;;;;;5095748;28;20429;-71
2022/10/29 04:28:31;;;;;;;1999.90;999.90;;;16.30;99.90;;;;;;5095816;28;20179;-71
2022/10/29 04:30:56;;;;;;;1999.90;999.90;;;16.30;99.90;;;;;;5095597;28;20200;-71
2022/10/29 04:33:22;;;;;;;1999.90;999.90;;;16.30;99.90;;;;;;5095469;28;20177;-71
2022/10/29 04:35:54;;;;;;;1999.90;999.90;;;16.30;99.90;;;;;;5095358;28;20212;-71
2022/10/29 04:38:20;;;;;;;1999.90;999.90;;;16.30;99.90;;;;;;5095025;28;20166;-71
2022/10/29 04:40:46;;;;;;;1999.90;999.90;;;16.40;99.90;;;;;;5095267;28;20409;-71
2022/10/29 04:43:11;;;;;;;1999.90;999.90;;;16.30;99.90;;;;;;5095353;28;20476;-71
2022/10/29 04:45:37;;;;;;;1999.90;999.90;;;16.30;99.90;;;;;;5095192;28;20255;-71
2022/10/29 04:48:04;;;;;;;1999.90;999.90;;;16.20;99.90;;;;;;5094894;28;20173;-72
2022/10/29 04:50:30;;;;;;;1999.90;999.90;;;16.20;99.90;;;;;;5095285;28;20204;-71
2022/10/29 04:53:01;;;;;;;1999.90;999.90;;;16.20;99.90;;;;;;5094903;28;20439;-71
2022/10/29 04:55:27;;;;;;;1999.90;999.90;;;16.10;99.90;;;;;;5094804;28;20420;-71
2022/10/29 04:57:53;;;;;;;1999.90;999.90;;;16.10;99.90;;;;;;5094572;28;20830;-71
2022/10/29 05:00:20;;;;;;;1999.90;999.90;;;16.00;99.90;;;;;;5094628;28;20419;-71
2022/10/29 05:02:50;;;;;;;1999.90;999.90;;;16.00;99.90;;;;;;5094709;28;20419;-71
2022/10/29 05:05:17;;;;;;;1999.90;999.90;;;16.00;99.90;;;;;;5094525;28;20792;-71
2022/10/29 05:07:43;;;;;;;1999.90;999.90;;;16.00;99.90;;;;;;5094312;28;20409;-71
2022/10/29 05:10:09;;;;;;;1999.90;999.90;;;15.90;99.90;;;;;;5094371;28;20453;-71
2022/10/29 05:12:35;;;;;;;1999.90;999.90;;;15.90;99.90;;;;;;5095288;28;20275;-70
2022/10/29 05:15:01;;;;;;;1999.90;999.90;;;15.90;99.90;;;;;;5094222;28;20482;-71
2022/10/29 05:17:26;;;;;;;1999.90;999.90;;;15.90;99.90;;;;;;5093730;28;20229;-71
2022/10/29 05:19:52;;;;;;;1999.90;999.90;;;15.90;99.90;;;;;;5094234;28;20182;-71
2022/10/29 05:22:17;;;;;;;1999.90;999.90;;;15.90;99.90;;;;;;5094422;28;20193;-71
2022/10/29 05:24:43;;;;;;;1999.90;999.90;;;15.90;99.90;;;;;;5094093;28;20709;-71
2022/10/29 05:27:08;;;;;;;1999.90;999.90;;;15.90;99.90;;;;;;5093906;28;20171;-71
2022/10/29 05:29:34;;;;;;;1999.90;999.90;;;15.80;99.90;;;;;;5093971;28;20177;-71
2022/10/29 05:32:00;;;;;;;1999.90;999.90;;;15.80;99.90;;;;;;5094078;28;20205;-69
2022/10/29 05:34:26;;;;;;;1999.90;999.90;;;15.80;99.90;;;;;;5093925;28;20638;-69
2022/10/29 05:36:51;;;;;;;1999.90;999.90;;;15.70;99.90;;;;;;5093773;28;20257;-71
2022/10/29 05:39:17;;;;;;;1999.90;999.90;;;15.80;99.90;;;;;;5093857;28;20294;-71
2022/10/29 05:41:44;;;;;;;1999.90;999.90;;;15.80;99.90;;;;;;5094898;28;20177;-71
2022/10/29 05:44:09;;;;;;;1999.90;999.90;;;15.80;99.90;;;;;;5096042;28;20257;-71
2022/10/29 05:46:35;;;;;;;1999.90;999.90;;;15.80;99.90;;;;;;5095779;28;20429;-70
2022/10/29 05:49:01;;;;;;;1999.90;999.90;;;15.80;99.90;;;;;;5095229;28;20617;-72
2022/10/29 05:51:26;;;;;;;1999.90;999.90;;;15.80;99.90;;;;;;5096000;28;20207;-71
2022/10/29 05:53:52;;;;;;;1999.90;999.90;;;15.80;99.90;;;;;;5095590;28;20171;-71
2022/10/29 05:56:17;;;;;;;1999.90;999.90;;;15.90;99.90;;;;;;5093528;28;20187;-71
2022/10/29 05:58:43;;;;;;;1999.90;999.90;;;15.80;99.90;;;;;;5093370;28;20167;-71
2022/10/29 06:01:09;;;;;;;1999.90;999.90;;;15.80;99.90;;;;;;5093524;28;20174;-71
2022/10/29 06:03:37;;;;;;;1999.90;999.90;;;15.80;99.90;;;;;;5093659;28;20345;-71
2022/10/29 06:06:03;;;;;;;1999.90;999.90;;;15.80;99.90;;;;;;5093144;28;20421;-71
2022/10/29 06:08:29;;;;;;;1999.90;999.90;;;15.90;99.90;;;;;;5093172;28;20410;-71
2022/10/29 06:10:54;;;;;;;1999.90;999.90;;;15.90;99.90;;;;;;5093212;28;20240;-70
2022/10/29 06:13:21;;;;;;;1999.90;999.90;;;15.90;99.90;;;;;;5095845;28;20169;-71
2022/10/29 06:15:48;;;;;;;1999.90;999.90;;;15.90;99.90;;;;;;5094847;28;20205;-72
2022/10/29 06:18:14;;;;;;;1999.90;999.90;;;15.80;99.90;;;;;;5096231;28;20407;-71
2022/10/29 06:20:42;;;;;;;1999.90;999.90;;;15.80;99.90;;;;;;5095829;28;20498;-71
2022/10/29 06:23:09;;;;;;;1999.90;999.90;;;15.80;99.90;;;;;;5097233;28;20405;-71
2022/10/29 06:25:34;;;;;;;1999.90;999.90;;;15.80;99.90;;;;;;5095168;28;20426;-71
2022/10/29 06:28:08;;;;;;;1999.90;999.90;;;15.80;99.90;;;;;;5092840;28;20913;-71
2022/10/29 06:30:35;;;;;;;1999.90;999.90;;;15.70;99.90;;;;;;5092987;28;20192;-71
2022/10/29 06:33:02;;;;;;;1999.90;999.90;;;15.70;99.90;;;;;;5093010;28;20823;-70
2022/10/29 06:35:28;;;;;;;1999.90;999.90;;;15.70;99.90;;;;;;5092905;28;20796;-71
2022/10/29 06:37:53;;;;;;;1999.90;999.90;;;15.70;99.90;;;;;;5092497;28;20419;-71
2022/10/29 06:40:19;;;;;;;1999.90;999.90;;;15.60;99.90;;;;;;5092762;28;20410;-70
2022/10/29 06:42:45;;;;;;;1999.90;999.90;;;15.70;99.90;;;;;;5092908;28;20182;-70
2022/10/29 06:45:11;;;;;;;1999.90;999.90;;;15.70;99.90;;;;;;5092619;28;20208;-71
2022/10/29 06:47:44;;;;;;;1999.90;999.90;;;15.70;99.90;;;;;;5094093;28;20198;-71
2022/10/29 06:50:11;;;;;;;1999.90;999.90;;;15.60;99.90;;;;;;5096415;28;21094;-71
2022/10/29 06:52:37;;;;;;;1999.90;999.90;;;15.60;99.90;;;;;;5097448;28;20471;-71
2022/10/29 06:55:05;;;;;;;1999.90;999.90;;;15.60;99.90;;;;;;5097657;28;20483;-71
2022/10/29 06:57:31;;;;;;;1999.90;999.90;;;15.60;99.90;;;;;;5095940;28;20410;-71
2022/10/29 06:59:56;;;;;;;1999.90;999.90;;;15.50;99.90;;;;;;5095713;28;20497;-71
2022/10/29 07:02:22;;;;;;;1999.90;999.90;;;15.60;99.90;;;;;;5094561;28;20443;-71
2022/10/29 07:04:48;;;;;;;1999.90;999.90;;;15.60;99.90;;;;;;5094558;28;20201;-71
2022/10/29 07:07:14;;;;;;;1999.90;999.90;;;15.70;99.90;;;;;;5093565;28;20406;-71
2022/10/29 07:09:41;;;;;;;1999.90;999.90;;;15.80;99.90;;;;;;5094369;28;20230;-71
2022/10/29 07:12:07;;;;;;;1999.90;999.90;;;15.80;99.90;;;;;;5094816;28;20556;-72
2022/10/29 07:14:33;;;;;;;1999.90;999.90;;;15.90;99.90;;;;;;5093964;28;20412;-71
2022/10/29 07:16:58;;;;;;;1999.90;999.90;;;16.00;99.90;;;;;;5092735;28;20949;-71
2022/10/29 07:19:24;;;;;;;1999.90;999.90;;;16.10;99.90;;;;;;5092083;28;20172;-71
2022/10/29 07:21:49;;;;;;;1999.90;999.90;;;16.10;99.90;;;;;;5091972;28;20195;-70
2022/10/29 07:24:16;;;;;;;1999.90;999.90;;;16.20;99.90;;;;;;5092033;28;20281;-71
2022/10/29 07:26:42;;;;;;;1999.90;999.90;;;16.30;99.90;;;;;;5091558;28;20185;-71
2022/10/29 07:29:08;;;;;;;1999.90;999.90;;;16.40;99.90;;;;;;5091790;28;20837;-71
2022/10/29 07:31:34;;;;;;;1999.90;999.90;;;16.40;99.90;;;;;;5091927;28;20447;-71
2022/10/29 07:33:59;;;;;;;1999.90;999.90;;;16.50;99.90;;;;;;5092000;28;20654;-70
2022/10/29 07:36:25;;;;;;;1999.90;999.90;;;16.70;99.90;;;;;;5091365;28;20188;-71
2022/10/29 07:38:50;;;;;;;1999.90;999.90;;;16.80;99.90;;;;;;5091881;28;20266;-71
2022/10/29 07:41:16;;;;;;;1999.90;999.90;;;16.80;99.90;;;;;;5096123;28;20168;-71
2022/10/29 07:43:41;;;;;;;1999.90;999.90;;;16.90;99.90;;;;;;5096050;28;20216;-71
2022/10/29 07:46:07;;;;;;;1999.90;999.90;;;17.00;99.90;;;;;;5095960;28;20232;-71
2022/10/29 07:48:33;;;;;;;1999.90;999.90;;;17.00;99.90;;;;;;5095748;28;20169;-70
2022/10/29 07:51:00;;;;;;;1999.90;999.90;;;17.00;99.90;;;;;;5095777;28;20190;-71
2022/10/29 07:53:26;;;;;;;1999.90;999.90;;;17.10;99.90;;;;;;5095791;28;20256;-70
2022/10/29 07:55:54;;;;;;;1999.90;999.90;;;17.20;99.90;;;;;;5095399;28;20415;-71
2022/10/29 07:58:20;;;;;;;1999.90;999.90;;;17.20;99.90;;;;;;5095458;28;20413;-70
2022/10/29 08:00:46;;;;;;;1999.90;999.90;;;17.20;99.90;;;;;;5096757;28;20406;-70
2022/10/29 08:03:12;;;;;;;1999.90;999.90;;;17.30;99.90;;;;;;5096191;28;20423;-71
2022/10/29 08:05:38;;;;;;;1999.90;999.90;;;17.30;99.90;;;;;;5095358;28;20195;-71
2022/10/29 08:08:04;;;;;;;1999.90;999.90;;;17.30;99.90;;;;;;5094957;28;20399;-71
2022/10/29 08:10:31;;;;;;;1999.90;999.90;;;17.30;99.90;;;;;;5095789;28;21010;-71
2022/10/29 08:12:59;;;;;;;1999.90;999.90;;;17.30;99.90;;;;;;5095586;28;20400;-71
2022/10/29 08:15:26;;;;;;;1999.90;999.90;;;17.40;99.90;;;;;;5095017;28;20456;-71
2022/10/29 08:17:52;;;;;;;1999.90;999.90;;;17.40;99.90;;;;;;5094767;28;20440;-71
2022/10/29 08:20:19;;;;;;;1999.90;999.90;;;17.40;99.90;;;;;;5095283;28;20409;-69
2022/10/29 08:22:44;;;;;;;1999.90;999.90;;;17.40;99.90;;;;;;5095528;28;20176;-68
2022/10/29 08:25:13;;;;;;;1999.90;999.90;;;17.50;99.90;;;;;;5095118;28;20478;-69
2022/10/29 08:27:39;;;;;;;1999.90;999.90;;;17.50;99.90;;;;;;5094997;28;20159;-69
2022/10/29 08:30:06;;;;;;;1999.90;999.90;;;17.50;99.90;;;;;;5095105;28;20408;-69
2022/10/29 08:32:32;;;;;;;1999.90;999.90;;;17.60;99.90;;;;;;5094605;28;20415;-68
2022/10/29 08:34:58;;;;;;;1999.90;999.90;;;17.60;99.90;;;;;;5094852;28;20428;-68
2022/10/29 08:37:23;;;;;;;1999.90;999.90;;;17.60;99.90;;;;;;5094788;28;20618;-68
2022/10/29 08:39:49;;;;;;;1999.90;999.90;;;17.60;99.90;;;;;;5094955;28;20241;-68
2022/10/29 08:42:35;;;;;;;1999.90;999.90;;;17.60;99.90;;;;;;5094950;28;20637;-71
2022/10/29 08:45:19;;;;;;;1999.90;999.90;;;17.70;99.90;;;;;;5094877;28;20197;-71
2022/10/29 08:48:02;;;;;;;1999.90;999.90;;;17.80;99.90;;;;;;5094616;28;20443;-71
2022/10/29 08:50:39;;;;;;;1999.90;999.90;;;17.90;99.90;;;;;;5094306;28;20446;-70
2022/10/29 08:53:15;;;;;;;1999.90;999.90;;;18.10;99.90;;;;;;5094728;28;20925;-71
2022/10/29 08:55:41;;;;;;;1999.90;999.90;;;18.30;99.90;;;;;;5094612;28;20424;-71
2022/10/29 08:58:53;;;;;;;1999.90;999.90;;;18.40;99.90;;;;;;5094344;28;20505;-68
2022/10/29 09:01:21;;;;;;;1999.90;999.90;;;18.60;99.90;;;;;;5089843;28;20911;-70
2022/10/29 09:03:46;;;;;;;1999.90;999.90;;;18.60;99.90;;;;;;5094626;28;20400;-71
2022/10/29 09:06:39;;;;;;;1999.90;999.90;;;18.80;99.90;;;;;;5094207;28;20418;-70
2022/10/29 09:09:05;;;;;;;1999.90;999.90;;;18.90;99.90;;;;;;5085049;28;20284;-68
2022/10/29 09:11:46;;;;;;;1999.90;999.90;;;18.90;99.90;;;;;;5096137;28;20451;-68
2022/10/29 09:14:36;;;;;;;1999.90;999.90;;;18.80;99.90;;;;;;5096060;28;20444;-69
2022/10/29 09:17:16;;;;;;;1999.90;999.90;;;18.80;99.90;;;;;;5095853;28;20500;-69
2022/10/29 09:19:56;;;;;;;1999.90;999.90;;;18.90;99.90;;;;;;5095485;28;20399;-69
2022/10/29 09:22:50;;;;;;;1999.90;999.90;;;18.90;99.90;;;;;;5095538;28;20406;-68
2022/10/29 09:25:31;;;;;;;1999.90;999.90;;;19.00;99.90;;;;;;5094871;28;20454;-68
2022/10/29 09:28:19;;;;;;;1999.90;999.90;;;19.00;99.90;;;;;;5094258;28;20408;-67
2022/10/29 09:31:21;;;;;;;1999.90;999.90;;;19.20;99.90;;;;;;5094555;28;20530;-66
2022/10/29 09:33:49;;;;;;;1999.90;999.90;;;19.20;99.90;;;;;;5094397;28;20901;-69
2022/10/29 09:36:21;;;;;;;1999.90;999.90;;;19.30;99.90;;;;;;5093484;28;21021;-69
2022/10/29 09:38:53;;;;;;;1999.90;999.90;;;19.40;99.90;;;;;;5093958;28;20413;-69
2022/10/29 09:41:24;;;;;;;1999.90;999.90;;;19.40;99.90;;;;;;5094531;28;20409;-69
2022/10/29 09:44:06;;;;;;;1999.90;999.90;;;19.50;99.90;;;;;;5076172;28;20422;-70
2022/10/29 09:47:02;;;;;;;1999.90;999.90;;;19.60;99.90;;;;;;5097210;28;20425;-71
2022/10/29 09:49:30;;;;;;;1999.90;999.90;;;19.90;99.90;;;;;;5112873;28;20412;-68
2022/10/29 09:52:24;;;;;;;1999.90;999.90;;;20.00;99.90;;;;;;5113645;28;20470;-68
2022/10/29 09:54:52;;;;;;;1999.90;999.90;;;20.10;99.90;;;;;;5113075;28;20425;-68
2022/10/29 09:57:23;;;;;;;1999.90;999.90;;;20.10;99.90;;;;;;5114037;28;20405;-68
2022/10/29 09:59:54;;;;;;;1999.90;999.90;;;20.20;99.90;;;;;;5114005;28;20399;-68
2022/10/29 10:02:34;;;;;;;1999.90;999.90;;;20.20;99.90;;;;;;5092909;28;20422;-68
2022/10/29 10:05:12;;;;;;;1999.90;999.90;;;20.20;99.90;;;;;;5092440;28;20514;-68
2022/10/29 10:07:38;;;;;;;1999.90;999.90;;;20.20;99.90;;;;;;5073854;28;20873;-68
2022/10/29 10:10:06;;;;;;;1999.90;999.90;;;20.20;99.90;;;;;;5073296;28;20792;-67
2022/10/29 10:12:38;;;;;;;1999.90;999.90;;;20.20;99.90;;;;;;5091944;28;20424;-69
2022/10/29 10:15:31;;;;;;;1999.90;999.90;;;20.20;99.90;;;;;;5093174;28;20443;-67
2022/10/29 10:18:12;;;;;;;1999.90;999.90;;;20.20;99.90;;;;;;5084228;28;20472;-67
2022/10/29 10:21:03;;;;;;;1999.90;999.90;;;20.30;99.90;;;;;;5093038;28;20414;-67
2022/10/29 10:23:39;;;;;;;1999.90;999.90;;;20.30;99.90;;;;;;5092899;28;20414;-67
2022/10/29 10:26:25;;;;;;;1999.90;999.90;;;20.30;99.90;;;;;;5092620;28;20423;-67
2022/10/29 10:29:12;;;;;;;1999.90;999.90;;;20.30;99.90;;;;;;5092340;28;20420;-67
2022/10/29 10:31:39;;;;;;;1999.90;999.90;;;20.40;99.90;;;;;;5072317;28;20489;-67
2022/10/29 10:34:11;;;;;;;1999.90;999.90;;;20.50;99.90;;;;;;5072268;28;20843;-67
2022/10/29 10:36:41;;;;;;;1999.90;999.90;;;20.50;99.90;;;;;;5072168;28;20414;-67
2022/10/29 10:39:23;;;;;;;1999.90;999.90;;;20.50;99.90;;;;;;5072371;28;20413;-67
2022/10/29 10:41:50;;;;;;;1999.90;999.90;;;20.50;99.90;;;;;;5072225;28;20864;-67
2022/10/29 10:44:18;;;;;;;1999.90;999.90;;;20.50;99.90;;;;;;5072518;28;20441;-67
2022/10/29 10:46:44;;;;;;;1999.90;999.90;;;20.50;99.90;;;;;;5072132;28;20441;-67
2022/10/29 10:49:23;;;;;;;1999.90;999.90;;;20.60;99.90;;;;;;5072317;28;20512;-67
2022/10/29 10:51:51;;;;;;;1999.90;999.90;;;20.50;99.90;;;;;;5072718;28;20476;-67
2022/10/29 10:54:37;;;;;;;1999.90;999.90;;;20.60;99.90;;;;;;5076743;28;20446;-67
2022/10/29 10:57:12;;;;;;;1999.90;999.90;;;20.60;99.90;;;;;;5074238;28;20406;-68
2022/10/29 10:59:55;;;;;;;1999.90;999.90;;;20.70;99.90;;;;;;5072583;28;20413;-68
2022/10/29 11:02:38;;;;;;;1999.90;999.90;;;20.70;99.90;;;;;;5072792;28;20393;-69
2022/10/29 11:05:19;;;;;;;1999.90;999.90;;;20.80;99.90;;;;;;5080221;28;20432;-69
2022/10/29 11:08:08;;;;;;;1999.90;999.90;;;21.00;99.90;;;;;;5080485;28;20439;-69
2022/10/29 11:10:42;;;;;;;1999.90;999.90;;;21.10;99.90;;;;;;5075354;28;21018;-69
2022/10/29 11:13:15;;;;;;;1999.90;999.90;;;21.30;99.90;;;;;;5057617;28;20402;-68
2022/10/29 11:15:48;;;;;;;1999.90;999.90;;;21.60;99.90;;;;;;5077641;28;20544;-69
2022/10/29 11:18:29;;;;;;;1999.90;999.90;;;21.80;99.90;;;;;;5078398;28;20415;-69
2022/10/29 11:21:00;;;;;;;1999.90;999.90;;;22.10;99.90;;;;;;5078035;28;20414;-69
2022/10/29 11:24:06;;;;;;;1999.90;999.90;;;22.40;99.90;;;;;;5073411;28;20823;-69
2022/10/29 11:27:21;;;;;;;1999.90;999.90;;;22.70;99.90;;;;;;5040673;28;20446;-67
2022/10/29 11:30:00;;;;;;;1999.90;999.90;;;22.90;99.90;;;;;;5069047;28;20487;-68
2022/10/29 11:32:43;;;;;;;1999.90;999.90;;;22.90;99.90;;;;;;5072212;28;20461;-67
2022/10/29 11:35:26;;;;;;;1999.90;999.90;;;22.90;99.90;;;;;;5073671;28;20515;-68
2022/10/29 11:38:07;;;;;;;1999.90;999.90;;;23.10;99.90;;;;;;5076009;28;20442;-68
2022/10/29 11:40:54;;;;;;;1999.90;999.90;;;23.40;99.90;;;;;;5072216;28;20409;-68
2022/10/29 11:43:20;;;;;;;1999.90;999.90;;;23.60;99.90;;;;;;5075136;28;20762;-67
2022/10/29 11:46:15;;;;;;;1999.90;999.90;;;23.60;99.90;;;;;;5072026;28;20846;-67
2022/10/29 11:48:46;;;;;;;1999.90;999.90;;;23.60;99.90;;;;;;5071445;28;20405;-67
2022/10/29 11:51:37;;;;;;;1999.90;999.90;;;23.50;99.90;;;;;;5071484;28;20460;-67
2022/10/29 11:54:24;;;;;;;1999.90;999.90;;;23.50;99.90;;;;;;5071413;28;20429;-67
2022/10/29 11:57:00;;;;;;;1999.90;999.90;;;23.50;99.90;;;;;;5071248;28;20421;-67
2022/10/29 11:59:50;;;;;;;1999.90;999.90;;;23.70;99.90;;;;;;5071845;28;20435;-69
2022/10/29 12:02:35;;;;;;;1999.90;999.90;;;24.00;99.90;;;;;;5075381;28;20459;-68
2022/10/29 12:05:03;;;;;;;1999.90;999.90;;;24.10;99.90;;;;;;5073651;28;20429;-68
2022/10/29 12:07:41;;;;;;;1999.90;999.90;;;24.30;99.90;;;;;;5078000;28;20477;-68
2022/10/29 12:10:42;;;;;;;1999.90;999.90;;;24.50;99.90;;;;;;5076178;28;20405;-68
2022/10/29 12:13:21;;;;;;;1999.90;999.90;;;25.20;99.90;;;;;;5073966;28;20441;-68
2022/10/29 12:16:14;;;;;;;1999.90;999.90;;;25.90;99.90;;;;;;5079434;28;20448;-69
2022/10/29 12:18:48;;;;;;;1999.90;999.90;;;26.40;99.90;;;;;;5076299;28;20420;-69